Time;durP1;ratioP1;P1;durP2;ratioP2;P2;SDS_P1;SDS_P2;PMS_P1;PMS_P2;Temp;Humidity;BMP_temperature;BMP_pressure;BME280_temperature;BME280_humidity;BME280_pressure;Samples;Min_cycle;Max_cycle;Signal;HPM_P1;HPM_P2
2022/07/10 00:01:52;;;;;;;0.00;0.00;;;19.50;91.10;;;;;;5051599;28;20381;-77
2022/07/10 00:04:21;;;;;;;0.10;0.10;;;19.40;90.60;;;;;;5051613;28;20036;-77
2022/07/10 00:06:46;;;;;;;0.10;0.10;;;19.10;90.80;;;;;;5051840;28;20032;-77
2022/07/10 00:09:13;;;;;;;0.50;0.50;;;19.10;91.40;;;;;;5051418;28;20392;-77
2022/07/10 00:11:40;;;;;;;0.10;0.10;;;19.40;90.70;;;;;;5050490;28;20029;-77
2022/07/10 00:14:06;;;;;;;0.08;0.08;;;19.40;90.70;;;;;;5051730;28;20485;-77
2022/07/10 00:16:32;;;;;;;0.08;0.08;;;19.60;90.20;;;;;;5051754;28;20042;-76
2022/07/10 00:18:57;;;;;;;0.10;0.10;;;19.50;90.10;;;;;;5051509;28;20154;-76
2022/07/10 00:21:23;;;;;;;0.10;0.10;;;19.40;90.00;;;;;;5051559;28;20025;-77
2022/07/10 00:23:49;;;;;;;0.50;0.50;;;19.30;90.10;;;;;;5051633;28;20380;-77
2022/07/10 00:26:15;;;;;;;0.10;0.10;;;19.30;90.00;;;;;;5051671;28;20533;-77
2022/07/10 00:28:40;;;;;;;0.10;0.10;;;19.30;89.90;;;;;;5051496;28;20091;-77
2022/07/10 00:31:06;;;;;;;0.15;0.15;;;19.30;89.40;;;;;;5050241;28;20503;-78
2022/07/10 00:33:32;;;;;;;0.35;0.35;;;19.20;89.50;;;;;;5051539;28;20017;-77
2022/07/10 00:35:58;;;;;;;2.83;2.72;;;19.10;89.80;;;;;;5051636;28;20540;-77
2022/07/10 00:38:24;;;;;;;0.00;0.00;;;19.10;90.10;;;;;;5051490;28;20080;-77
2022/07/10 00:40:50;;;;;;;0.17;0.17;;;19.20;90.10;;;;;;5051248;28;20032;-77
2022/07/10 00:43:16;;;;;;;0.10;0.10;;;19.20;90.20;;;;;;5051505;28;20017;-77
2022/07/10 00:45:42;;;;;;;0.10;0.10;;;19.10;90.10;;;;;;5051440;28;20041;-76
2022/07/10 00:48:09;;;;;;;0.05;0.05;;;19.10;90.50;;;;;;5052839;28;20361;-77
2022/07/10 00:50:35;;;;;;;0.10;0.10;;;19.20;90.50;;;;;;5055003;28;20021;-77
2022/07/10 00:53:02;;;;;;;0.25;0.25;;;19.30;90.10;;;;;;5055113;28;20078;-77
2022/07/10 00:55:28;;;;;;;0.38;0.38;;;19.40;89.90;;;;;;5055225;28;20365;-77
2022/07/10 00:57:55;;;;;;;0.08;0.08;;;19.20;90.00;;;;;;5055122;28;20053;-77
2022/07/10 01:00:21;;;;;;;0.43;0.32;;;19.10;90.80;;;;;;5054737;28;20025;-77
2022/07/10 01:02:47;;;;;;;0.10;0.10;;;18.90;91.30;;;;;;5068121;22;20033;-73
2022/07/10 01:05:13;;;;;;;0.10;0.10;;;18.90;91.80;;;;;;5037256;28;20026;-73
2022/07/10 01:07:39;;;;;;;0.10;0.10;;;18.90;92.10;;;;;;5035108;28;20434;-72
2022/07/10 01:10:05;;;;;;;0.60;0.60;;;18.70;93.70;;;;;;5034934;28;20032;-73
2022/07/10 01:12:31;;;;;;;0.70;0.70;;;18.50;95.10;;;;;;5017264;28;20026;-73
2022/07/10 01:14:59;;;;;;;0.85;0.60;;;18.30;96.60;;;;;;5017246;28;20439;-73
2022/07/10 01:17:25;;;;;;;0.77;0.77;;;18.20;99.10;;;;;;5034768;28;20029;-76
2022/07/10 01:19:51;;;;;;;0.32;0.32;;;18.30;99.90;;;;;;5000699;28;20033;-74
2022/07/10 01:22:17;;;;;;;0.10;0.10;;;18.10;99.90;;;;;;5034765;28;20034;-74
2022/07/10 01:24:43;;;;;;;19.75;0.50;;;18.10;99.90;;;;;;5017055;28;20025;-74
2022/07/10 01:27:09;;;;;;;0.10;0.10;;;18.10;99.90;;;;;;5017081;28;20018;-75
2022/07/10 01:29:36;;;;;;;0.10;0.10;;;18.20;99.90;;;;;;5000246;28;20021;-75
2022/07/10 01:32:02;;;;;;;0.50;0.50;;;18.20;99.90;;;;;;5016836;28;20060;-74
2022/07/10 01:34:28;;;;;;;1.05;1.00;;;18.00;99.90;;;;;;5016689;28;20057;-75
2022/07/10 01:36:54;;;;;;;0.45;0.45;;;18.00;99.90;;;;;;5016549;28;20488;-74
2022/07/10 01:39:23;;;;;;;1.10;0.77;;;17.80;99.90;;;;;;5034370;28;20021;-74
2022/07/10 01:41:49;;;;;;;0.85;0.43;;;17.60;99.90;;;;;;5000667;28;20082;-74
2022/07/10 01:44:15;;;;;;;0.10;0.10;;;17.40;99.90;;;;;;5016751;28;20021;-74
2022/07/10 01:46:45;;;;;;;0.20;0.20;;;17.40;99.90;;;;;;5016519;28;20025;-74
2022/07/10 01:49:11;;;;;;;0.05;0.05;;;17.30;99.90;;;;;;5034449;28;20385;-74
2022/07/10 01:51:37;;;;;;;0.20;0.20;;;17.40;99.90;;;;;;5016615;28;20021;-74
2022/07/10 01:54:02;;;;;;;0.10;0.10;;;17.40;99.90;;;;;;5034167;28;20080;-74
2022/07/10 01:56:28;;;;;;;0.10;0.10;;;17.50;99.90;;;;;;5016294;28;20543;-73
2022/07/10 01:58:54;;;;;;;0.10;0.10;;;17.30;99.90;;;;;;5033733;28;20053;-73
2022/07/10 02:01:20;;;;;;;0.22;0.22;;;17.20;99.90;;;;;;5033788;28;20036;-74
2022/07/10 02:06:30;;;;;;;0.40;0.40;;;17.30;99.90;;;;;;5033906;28;20028;-74
2022/07/10 02:08:55;;;;;;;0.10;0.10;;;17.50;99.90;;;;;;5016097;28;20018;-74
2022/07/10 02:11:21;;;;;;;0.10;0.10;;;17.60;99.90;;;;;;5016367;28;20025;-74
2022/07/10 02:13:47;;;;;;;1.00;0.75;;;17.60;99.90;;;;;;5033821;28;20026;-74
2022/07/10 02:16:13;;;;;;;0.10;0.10;;;17.60;99.90;;;;;;4999666;28;20029;-74
2022/07/10 02:18:39;;;;;;;0.10;0.10;;;17.70;99.90;;;;;;5015956;28;20025;-74
2022/07/10 02:21:04;;;;;;;0.00;0.00;;;17.70;99.90;;;;;;4999591;28;20072;-74
2022/07/10 02:23:30;;;;;;;0.10;0.10;;;17.70;99.90;;;;;;5016063;28;20053;-73
2022/07/10 02:25:56;;;;;;;0.10;0.10;;;17.80;99.90;;;;;;5033498;28;20021;-74
2022/07/10 02:28:22;;;;;;;0.10;0.10;;;17.80;99.90;;;;;;5033267;28;20031;-74
2022/07/10 02:30:47;;;;;;;0.10;0.10;;;17.80;99.90;;;;;;5015562;28;20028;-74
2022/07/10 02:33:13;;;;;;;0.17;0.15;;;17.70;99.90;;;;;;5033642;28;20029;-74
2022/07/10 02:35:39;;;;;;;0.10;0.10;;;17.40;99.90;;;;;;5015722;28;20029;-74
2022/07/10 02:38:04;;;;;;;0.47;0.47;;;17.40;99.90;;;;;;5033370;28;20022;-73
2022/07/10 02:40:30;;;;;;;0.40;0.40;;;17.60;99.90;;;;;;5015494;28;20040;-74
2022/07/10 02:42:56;;;;;;;0.47;0.47;;;17.60;99.90;;;;;;5033158;28;20037;-74
2022/07/10 02:45:22;;;;;;;0.00;0.00;;;17.30;99.90;;;;;;5015375;28;20025;-74
2022/07/10 02:47:47;;;;;;;0.52;0.32;;;17.00;99.90;;;;;;5033181;28;20045;-74
2022/07/10 02:50:13;;;;;;;0.10;0.10;;;16.90;99.90;;;;;;5033008;28;20131;-73
2022/07/10 02:52:39;;;;;;;0.30;0.30;;;16.90;99.90;;;;;;5033075;28;20032;-73
2022/07/10 02:55:05;;;;;;;0.08;0.08;;;16.90;99.90;;;;;;5033012;28;20021;-74
2022/07/10 02:57:31;;;;;;;0.10;0.10;;;16.70;99.90;;;;;;5015285;28;20222;-74
2022/07/10 02:59:56;;;;;;;0.10;0.10;;;16.60;99.90;;;;;;5032807;28;20079;-74
2022/07/10 03:02:22;;;;;;;0.10;0.10;;;16.40;99.90;;;;;;5015186;28;20056;-74
2022/07/10 03:04:48;;;;;;;0.22;0.22;;;16.20;99.90;;;;;;5015108;28;20032;-74
2022/07/10 03:07:13;;;;;;;1.13;0.80;;;16.30;99.90;;;;;;5015507;28;20079;-74
2022/07/10 03:09:39;;;;;;;0.40;0.40;;;16.20;99.90;;;;;;4998708;28;20485;-74
2022/07/10 03:12:05;;;;;;;0.98;0.85;;;16.20;99.90;;;;;;5014659;28;20028;-74
2022/07/10 03:14:31;;;;;;;0.30;0.30;;;16.40;99.90;;;;;;5015071;28;20025;-74
2022/07/10 03:16:57;;;;;;;0.10;0.10;;;16.60;99.90;;;;;;5032630;28;20087;-74
2022/07/10 03:19:23;;;;;;;0.88;0.82;;;16.50;99.90;;;;;;5032608;28;20075;-74
2022/07/10 03:21:48;;;;;;;0.10;0.10;;;16.50;99.90;;;;;;5032433;28;20025;-74
2022/07/10 03:24:14;;;;;;;0.77;0.70;;;16.40;99.90;;;;;;5032620;28;20033;-74
2022/07/10 03:26:40;;;;;;;0.10;0.10;;;16.30;99.90;;;;;;5032563;28;20036;-74
2022/07/10 03:29:06;;;;;;;0.77;0.77;;;16.20;99.90;;;;;;5032687;28;20029;-74
2022/07/10 03:31:32;;;;;;;0.20;0.20;;;16.20;99.90;;;;;;5032498;28;20026;-74
2022/07/10 03:33:57;;;;;;;0.10;0.10;;;16.10;99.90;;;;;;5014647;28;20022;-74
2022/07/10 03:36:23;;;;;;;0.00;0.00;;;16.30;99.90;;;;;;5014700;28;20026;-74
2022/07/10 03:38:49;;;;;;;0.05;0.05;;;16.30;99.90;;;;;;5032396;28;20438;-74
2022/07/10 03:41:14;;;;;;;0.00;0.00;;;16.50;99.90;;;;;;5032321;28;20500;-74
2022/07/10 03:43:40;;;;;;;0.57;0.57;;;16.70;99.90;;;;;;5032342;28;20025;-74
2022/07/10 03:46:06;;;;;;;0.03;0.03;;;16.80;99.90;;;;;;5032142;28;20045;-74
2022/07/10 03:48:33;;;;;;;0.00;0.00;;;17.20;99.90;;;;;;4998226;28;20493;-74
2022/07/10 03:50:59;;;;;;;0.00;0.00;;;17.30;99.90;;;;;;5032159;28;20040;-74
2022/07/10 03:53:25;;;;;;;0.10;0.10;;;17.30;99.90;;;;;;5014429;28;20064;-74
2022/07/10 03:55:51;;;;;;;0.10;0.10;;;17.10;99.90;;;;;;5032003;28;20025;-74
2022/07/10 03:58:16;;;;;;;0.00;0.00;;;17.00;99.90;;;;;;5032207;28;20147;-73
2022/07/10 04:00:43;;;;;;;0.15;0.15;;;17.00;99.90;;;;;;4997759;28;20592;-74
2022/07/10 04:03:09;;;;;;;0.25;0.25;;;17.00;99.90;;;;;;5031910;28;20389;-74
2022/07/10 04:05:35;;;;;;;0.00;0.00;;;16.90;99.90;;;;;;5031989;28;20025;-74
2022/07/10 04:08:02;;;;;;;0.50;0.43;;;16.80;99.90;;;;;;5014066;28;20112;-74
2022/07/10 04:10:31;;;;;;;0.10;0.10;;;16.70;99.90;;;;;;5014051;28;20021;-74
2022/07/10 04:12:57;;;;;;;0.52;0.52;;;16.80;99.90;;;;;;5031977;28;20084;-74
2022/07/10 04:15:23;;;;;;;0.22;0.22;;;17.00;99.90;;;;;;5031927;28;20029;-74
2022/07/10 04:17:49;;;;;;;0.17;0.17;;;17.20;99.90;;;;;;5031874;28;20029;-73
2022/07/10 04:20:16;;;;;;;0.10;0.10;;;17.10;99.90;;;;;;4997793;28;20112;-73
2022/07/10 04:22:41;;;;;;;0.10;0.10;;;17.00;99.90;;;;;;5032339;28;20029;-73
2022/07/10 04:25:08;;;;;;;0.50;0.50;;;17.00;99.90;;;;;;5018087;28;20018;-74
2022/07/10 04:27:34;;;;;;;0.30;0.30;;;17.10;99.90;;;;;;5017993;28;20026;-74
2022/07/10 04:30:00;;;;;;;0.08;0.08;;;16.80;99.90;;;;;;5035572;28;20029;-74
2022/07/10 04:32:27;;;;;;;1.70;1.58;;;16.90;99.90;;;;;;5017978;28;20026;-74
2022/07/10 04:34:54;;;;;;;0.00;0.00;;;16.80;99.90;;;;;;5035597;28;20053;-74
2022/07/10 04:37:20;;;;;;;0.00;0.00;;;16.80;99.90;;;;;;5035523;28;20043;-74
2022/07/10 04:39:45;;;;;;;0.00;0.00;;;17.00;99.90;;;;;;5035367;28;20117;-74
2022/07/10 04:42:11;;;;;;;0.10;0.10;;;17.00;99.90;;;;;;5035384;28;20183;-74
2022/07/10 04:44:37;;;;;;;0.00;0.00;;;17.10;99.90;;;;;;5035560;28;20052;-74
2022/07/10 04:47:04;;;;;;;2.95;1.45;;;17.10;99.90;;;;;;5017852;28;20022;-74
2022/07/10 04:49:30;;;;;;;0.10;0.10;;;16.80;99.90;;;;;;5017566;28;20029;-73
2022/07/10 04:51:58;;;;;;;0.47;0.47;;;16.70;99.90;;;;;;5035370;28;20037;-74
2022/07/10 04:54:25;;;;;;;0.10;0.10;;;16.60;99.90;;;;;;5001153;28;20025;-74
2022/07/10 04:56:50;;;;;;;0.10;0.10;;;16.70;99.90;;;;;;5017578;28;20037;-74
2022/07/10 04:59:16;;;;;;;0.40;0.40;;;16.80;99.90;;;;;;5000911;28;20149;-74
2022/07/10 05:01:42;;;;;;;0.00;0.00;;;16.80;99.90;;;;;;5035311;28;20159;-74
2022/07/10 05:04:11;;;;;;;0.20;0.20;;;16.80;99.90;;;;;;5035059;28;20726;-74
2022/07/10 05:06:36;;;;;;;0.10;0.10;;;16.90;99.90;;;;;;5017229;28;20033;-74
2022/07/10 05:09:03;;;;;;;0.45;0.45;;;16.90;99.90;;;;;;5017030;28;20048;-73
2022/07/10 05:11:30;;;;;;;0.00;0.00;;;16.80;99.90;;;;;;5034947;28;20029;-74
2022/07/10 05:13:56;;;;;;;0.25;0.25;;;16.80;99.90;;;;;;5017263;28;20091;-74
2022/07/10 05:16:22;;;;;;;0.00;0.00;;;16.80;99.90;;;;;;5017307;28;20033;-74
2022/07/10 05:18:48;;;;;;;0.32;0.32;;;16.90;99.90;;;;;;5034900;28;20036;-74
2022/07/10 05:21:13;;;;;;;0.10;0.10;;;17.00;99.90;;;;;;5034603;28;20100;-74
2022/07/10 05:23:39;;;;;;;0.10;0.10;;;17.00;99.90;;;;;;5034788;28;20025;-74
2022/07/10 05:26:06;;;;;;;1.08;0.68;;;17.00;99.90;;;;;;5017005;28;20026;-74
2022/07/10 05:28:31;;;;;;;1.20;1.13;;;17.10;99.90;;;;;;5016890;28;20488;-74
2022/07/10 05:30:57;;;;;;;0.08;0.08;;;16.80;99.90;;;;;;5034468;28;20120;-74
2022/07/10 05:33:24;;;;;;;0.88;0.80;;;16.80;99.90;;;;;;5034125;28;20030;-73
2022/07/10 05:35:49;;;;;;;0.10;0.10;;;16.80;99.90;;;;;;5034515;28;20505;-74
2022/07/10 05:38:17;;;;;;;0.10;0.10;;;16.70;99.90;;;;;;5034478;28;20025;-74
2022/07/10 05:40:43;;;;;;;0.10;0.10;;;16.80;99.90;;;;;;5034103;28;20351;-74
2022/07/10 05:43:09;;;;;;;0.13;0.13;;;16.90;99.90;;;;;;5016688;28;20477;-74
2022/07/10 05:45:35;;;;;;;0.10;0.10;;;17.00;99.90;;;;;;5016634;28;20021;-74
2022/07/10 05:48:01;;;;;;;0.10;0.10;;;17.00;99.90;;;;;;5016441;28;20026;-73
2022/07/10 05:50:27;;;;;;;0.10;0.10;;;17.10;99.90;;;;;;5034091;28;20036;-74
2022/07/10 05:52:52;;;;;;;0.10;0.10;;;17.10;99.90;;;;;;5016792;28;20030;-74
2022/07/10 05:55:18;;;;;;;0.10;0.10;;;17.20;99.90;;;;;;5034386;28;20060;-74
2022/07/10 05:57:44;;;;;;;0.10;0.10;;;17.00;99.90;;;;;;5034039;28;20143;-74
2022/07/10 06:00:10;;;;;;;0.10;0.10;;;17.10;99.90;;;;;;5016134;28;20083;-74
2022/07/10 06:02:36;;;;;;;0.55;0.50;;;17.00;99.90;;;;;;5033808;28;20096;-74
2022/07/10 06:05:02;;;;;;;0.10;0.10;;;16.80;99.90;;;;;;5016408;28;20033;-74
2022/07/10 06:07:27;;;;;;;0.20;0.20;;;16.70;99.90;;;;;;4999782;28;20017;-74
2022/07/10 06:09:54;;;;;;;0.10;0.10;;;16.60;99.90;;;;;;5033683;28;20083;-74
2022/07/10 06:12:19;;;;;;;0.32;0.32;;;16.70;99.90;;;;;;5016203;28;20025;-74
2022/07/10 06:14:45;;;;;;;1.77;1.67;;;16.80;99.90;;;;;;4999774;28;20029;-74
2022/07/10 06:17:11;;;;;;;0.43;0.43;;;16.70;99.90;;;;;;5016084;28;20025;-74
2022/07/10 06:19:37;;;;;;;0.10;0.10;;;16.70;99.90;;;;;;5015863;28;20044;-74
2022/07/10 06:24:47;;;;;;;0.30;0.20;;;16.90;99.90;;;;;;5016037;28;20028;-77
2022/07/10 06:27:13;;;;;;;1.20;1.10;;;17.00;99.90;;;;;;5038969;28;20018;-75
2022/07/10 06:29:39;;;;;;;0.30;0.30;;;17.00;99.90;;;;;;5035254;28;20028;-75
2022/07/10 06:32:05;;;;;;;2.63;1.55;;;16.90;99.90;;;;;;5035471;28;20476;-76
2022/07/10 06:34:31;;;;;;;0.82;0.82;;;16.90;99.90;;;;;;5035560;28;20029;-76
2022/07/10 06:36:57;;;;;;;4.30;2.80;;;16.90;99.90;;;;;;5035434;28;20032;-75
2022/07/10 06:39:23;;;;;;;0.10;0.10;;;16.60;99.90;;;;;;5035194;28;20032;-75
2022/07/10 06:41:48;;;;;;;0.03;0.03;;;16.60;99.90;;;;;;5035173;28;20361;-74
2022/07/10 06:44:14;;;;;;;1.08;0.98;;;16.70;99.90;;;;;;5052918;28;20075;-75
2022/07/10 06:46:41;;;;;;;2.03;1.77;;;16.80;99.90;;;;;;5034446;28;20127;-76
2022/07/10 06:49:07;;;;;;;0.10;0.10;;;16.80;99.90;;;;;;5052904;28;20058;-74
2022/07/10 06:51:32;;;;;;;1.45;1.35;;;16.80;99.90;;;;;;5035069;28;20464;-75
2022/07/10 06:53:58;;;;;;;0.10;0.10;;;17.00;99.90;;;;;;5052925;28;20025;-75
2022/07/10 06:56:24;;;;;;;0.20;0.20;;;17.20;99.90;;;;;;5052989;28;20021;-78
2022/07/10 06:58:50;;;;;;;0.17;0.17;;;17.20;99.90;;;;;;5052877;28;20461;-75
2022/07/10 07:01:16;;;;;;;0.10;0.10;;;17.30;99.90;;;;;;5052622;28;20036;-75
2022/07/10 07:03:41;;;;;;;1.10;1.02;;;17.60;99.90;;;;;;5034729;28;20079;-75
2022/07/10 07:06:07;;;;;;;0.10;0.10;;;17.60;99.90;;;;;;5067433;22;20025;-75
2022/07/10 07:08:36;;;;;;;0.10;0.10;;;17.60;99.90;;;;;;5019905;28;20030;-75
2022/07/10 07:11:02;;;;;;;0.32;0.32;;;17.60;99.90;;;;;;5012865;28;20026;-75
2022/07/10 07:13:28;;;;;;;0.20;0.20;;;17.80;99.90;;;;;;5011787;28;20037;-75
2022/07/10 07:16:04;;;;;;;2.10;0.30;;;17.90;99.90;;;;;;5012704;28;20429;-75
2022/07/10 07:18:35;;;;;;;0.20;0.20;;;17.90;99.90;;;;;;5023264;28;20017;-75
2022/07/10 07:23:45;;;;;;;1.27;1.15;;;17.70;99.90;;;;;;5020550;28;20026;-75
2022/07/10 07:26:11;;;;;;;3.63;2.15;;;17.90;99.90;;;;;;5012703;28;20442;-75
2022/07/10 07:28:37;;;;;;;0.10;0.10;;;17.80;99.90;;;;;;5012791;28;20057;-75
2022/07/10 07:31:03;;;;;;;6.70;3.70;;;17.70;99.90;;;;;;5019801;28;20112;-75
2022/07/10 07:33:29;;;;;;;0.40;0.38;;;17.60;99.90;;;;;;5031030;28;20022;-75
2022/07/10 07:35:56;;;;;;;0.10;0.10;;;17.60;99.90;;;;;;5030515;28;20373;-74
2022/07/10 07:38:22;;;;;;;0.63;0.63;;;17.60;99.90;;;;;;5014719;28;20077;-75
2022/07/10 07:40:48;;;;;;;0.30;0.30;;;17.60;99.90;;;;;;5031934;28;20430;-76
2022/07/10 07:43:13;;;;;;;0.77;0.77;;;17.70;99.90;;;;;;5032101;28;20100;-75
2022/07/10 07:45:39;;;;;;;0.30;0.30;;;17.60;99.90;;;;;;5032249;28;20022;-75
2022/07/10 07:48:05;;;;;;;0.88;0.50;;;17.80;99.90;;;;;;5032102;28;20448;-75
2022/07/10 07:50:33;;;;;;;12.05;11.18;;;18.20;99.90;;;;;;5031720;28;20104;-75
2022/07/10 07:53:03;;;;;;;0.10;0.10;;;18.30;99.90;;;;;;5031944;28;20040;-75
2022/07/10 07:55:30;;;;;;;2.47;1.75;;;18.40;99.90;;;;;;5012358;28;20022;-75
2022/07/10 07:57:56;;;;;;;0.10;0.10;;;18.40;99.90;;;;;;5017510;28;20036;-75
2022/07/10 08:00:24;;;;;;;1.77;1.67;;;18.30;99.90;;;;;;5031741;28;20036;-75
2022/07/10 08:02:51;;;;;;;2.00;1.65;;;18.20;99.90;;;;;;5030592;28;20039;-75
2022/07/10 08:05:18;;;;;;;0.63;0.63;;;18.00;99.90;;;;;;5030724;28;20047;-75
2022/07/10 08:07:48;;;;;;;0.10;0.10;;;18.30;99.90;;;;;;5031678;28;20477;-75
2022/07/10 08:10:16;;;;;;;0.60;0.60;;;18.60;99.90;;;;;;5030523;28;20398;-75
2022/07/10 08:12:45;;;;;;;1.73;1.52;;;18.90;99.90;;;;;;5030749;28;20459;-76
2022/07/10 08:15:12;;;;;;;0.40;0.40;;;19.20;99.90;;;;;;5031853;28;20026;-75
2022/07/10 08:17:38;;;;;;;0.20;0.20;;;19.50;99.90;;;;;;5031788;28;20393;-75
2022/07/10 08:20:05;;;;;;;9.43;2.13;;;19.70;99.90;;;;;;5031526;28;20025;-75
2022/07/10 08:22:32;;;;;;;0.13;0.13;;;19.30;99.90;;;;;;5031865;28;20461;-75
2022/07/10 08:24:58;;;;;;;2.30;1.35;;;19.10;99.90;;;;;;5031711;28;20097;-76
2022/07/10 08:27:24;;;;;;;0.10;0.10;;;18.80;99.90;;;;;;5031730;28;20109;-75
2022/07/10 08:29:50;;;;;;;2.08;1.00;;;18.70;99.90;;;;;;5031638;28;20045;-75
2022/07/10 08:32:16;;;;;;;3.65;1.85;;;18.80;99.90;;;;;;5031671;28;20025;-75
2022/07/10 08:34:42;;;;;;;1.75;1.13;;;19.10;99.90;;;;;;5031783;28;20044;-74
2022/07/10 08:37:08;;;;;;;0.82;0.77;;;18.70;99.90;;;;;;5031686;28;20079;-75
2022/07/10 08:39:34;;;;;;;0.40;0.40;;;18.80;99.90;;;;;;5030280;28;20121;-75
2022/07/10 08:42:00;;;;;;;0.38;0.38;;;19.20;99.90;;;;;;5031767;28;20028;-75
2022/07/10 08:44:28;;;;;;;1.10;0.70;;;19.10;99.90;;;;;;5031643;28;20504;-75
2022/07/10 08:46:55;;;;;;;2.25;1.48;;;18.90;99.90;;;;;;5031530;28;20033;-75
2022/07/10 08:49:27;;;;;;;0.20;0.20;;;18.90;99.90;;;;;;5031305;28;20056;-75
2022/07/10 08:52:04;;;;;;;1.42;1.33;;;18.90;99.90;;;;;;5030438;28;20053;-76
2022/07/10 08:54:32;;;;;;;0.25;0.25;;;19.10;99.90;;;;;;5030391;28;20037;-75
2022/07/10 08:56:59;;;;;;;1.35;1.23;;;18.70;99.90;;;;;;5031518;28;20025;-75
2022/07/10 08:59:25;;;;;;;0.77;0.77;;;18.60;99.90;;;;;;5031205;28;20109;-75
2022/07/10 09:01:52;;;;;;;0.47;0.47;;;18.20;99.90;;;;;;5030128;28;20025;-75
2022/07/10 09:04:20;;;;;;;2.28;1.92;;;18.30;99.90;;;;;;5031417;28;20064;-75
2022/07/10 09:06:46;;;;;;;0.03;0.03;;;18.60;99.90;;;;;;5029919;28;20029;-75
2022/07/10 09:09:11;;;;;;;1.73;1.55;;;19.00;99.90;;;;;;5032732;28;20028;-75
2022/07/10 09:11:40;;;;;;;0.75;0.57;;;19.70;99.90;;;;;;5035023;28;20413;-76
2022/07/10 09:14:08;;;;;;;2.83;1.25;;;20.00;99.90;;;;;;5033809;28;20055;-75
2022/07/10 09:16:36;;;;;;;6.68;1.95;;;20.00;99.90;;;;;;5034896;28;20033;-75
2022/07/10 09:19:22;;;;;;;0.20;0.20;;;19.90;99.90;;;;;;5034651;28;20025;-75
2022/07/10 09:21:52;;;;;;;0.30;0.30;;;19.80;99.90;;;;;;5034734;28;20032;-75
2022/07/10 09:24:19;;;;;;;0.25;0.25;;;20.50;99.90;;;;;;5034785;28;20480;-75
2022/07/10 09:26:54;;;;;;;5.95;1.77;;;20.50;99.90;;;;;;5033860;28;20022;-75
2022/07/10 09:29:19;;;;;;;0.13;0.13;;;19.90;99.90;;;;;;5034494;28;20018;-76
2022/07/10 09:31:55;;;;;;;0.82;0.75;;;20.40;99.90;;;;;;5034604;28;20030;-75
2022/07/10 09:34:42;;;;;;;0.10;0.10;;;20.40;99.90;;;;;;5034487;28;20025;-75
2022/07/10 09:37:27;;;;;;;0.80;0.80;;;20.60;99.90;;;;;;5034606;28;20022;-75
2022/07/10 09:39:53;;;;;;;0.13;0.13;;;20.20;99.90;;;;;;5034200;28;20060;-76
2022/07/10 09:42:26;;;;;;;0.13;0.13;;;20.60;98.50;;;;;;5034453;28;20057;-75
2022/07/10 09:44:53;;;;;;;0.43;0.43;;;20.60;98.70;;;;;;5033151;28;20029;-75
2022/07/10 09:47:22;;;;;;;0.10;0.10;;;20.80;98.20;;;;;;5033786;28;20045;-75
2022/07/10 09:49:48;;;;;;;0.25;0.25;;;21.30;97.40;;;;;;5016078;28;20025;-75
2022/07/10 09:52:15;;;;;;;0.08;0.08;;;21.90;95.50;;;;;;5034313;28;20101;-75
2022/07/10 09:54:41;;;;;;;2.10;1.40;;;22.30;93.50;;;;;;5034197;28;20072;-76
2022/07/10 09:57:10;;;;;;;5.22;0.95;;;22.60;92.00;;;;;;5033843;28;20025;-76
2022/07/10 09:59:37;;;;;;;15.60;1.95;;;22.30;88.50;;;;;;5033923;28;20382;-75
2022/07/10 10:02:07;;;;;;;0.43;0.40;;;22.20;87.70;;;;;;5037332;28;20056;-79
2022/07/10 10:04:35;;;;;;;0.00;0.00;;;22.30;87.40;;;;;;5017341;28;20032;-75
2022/07/10 10:07:02;;;;;;;0.57;0.57;;;22.40;83.10;;;;;;5033030;28;20500;-78
2022/07/10 10:09:40;;;;;;;0.57;0.57;;;22.20;82.40;;;;;;5034640;28;20028;-75
2022/07/10 10:12:17;;;;;;;0.45;0.45;;;22.50;81.30;;;;;;5033996;28;20029;-75
2022/07/10 10:14:43;;;;;;;0.38;0.32;;;22.30;80.10;;;;;;5032598;28;20022;-76
2022/07/10 10:17:11;;;;;;;2.33;1.20;;;21.70;80.70;;;;;;5032146;28;20029;-75
2022/07/10 10:22:25;;;;;;;1.38;1.27;;;21.00;83.10;;;;;;5032206;28;20021;-75
2022/07/10 10:24:53;;;;;;;1.45;0.40;;;21.40;79.80;;;;;;5033699;28;20033;-75
2022/07/10 10:27:21;;;;;;;0.40;0.40;;;22.00;80.80;;;;;;5033500;28;20021;-75
2022/07/10 10:29:48;;;;;;;0.28;0.28;;;22.00;79.20;;;;;;5032131;28;20025;-75
2022/07/10 10:32:14;;;;;;;0.15;0.15;;;21.60;79.30;;;;;;5032375;28;20045;-75
2022/07/10 10:34:45;;;;;;;0.10;0.10;;;21.40;80.30;;;;;;5032367;28;20025;-75
2022/07/10 10:37:44;;;;;;;0.10;0.10;;;21.50;82.40;;;;;;5033432;28;20028;-75
2022/07/10 10:40:30;;;;;;;0.10;0.10;;;21.40;85.50;;;;;;5021874;28;20049;-75
2022/07/10 10:42:55;;;;;;;0.20;0.20;;;21.60;85.80;;;;;;5033192;28;20052;-75
2022/07/10 10:45:27;;;;;;;0.10;0.10;;;22.00;83.90;;;;;;5033240;28;20057;-76
2022/07/10 10:48:02;;;;;;;1.42;0.28;;;22.70;81.20;;;;;;5033202;28;20079;-75
2022/07/10 10:50:42;;;;;;;0.40;0.40;;;22.40;77.50;;;;;;5032828;28;20511;-75
2022/07/10 10:53:20;;;;;;;0.45;0.45;;;21.90;80.40;;;;;;5031885;28;20083;-75
2022/07/10 10:56:06;;;;;;;0.28;0.28;;;21.70;79.20;;;;;;5029937;28;20025;-75
2022/07/10 10:58:39;;;;;;;0.93;0.65;;;21.50;79.60;;;;;;5031034;28;20064;-75
2022/07/10 11:01:28;;;;;;;0.65;0.25;;;21.20;81.10;;;;;;5027660;28;20038;-76
2022/07/10 11:04:12;;;;;;;0.10;0.10;;;21.00;78.30;;;;;;5026903;28;20025;-75
2022/07/10 11:06:47;;;;;;;0.50;0.50;;;20.80;78.30;;;;;;5032558;28;20120;-75
2022/07/10 11:09:28;;;;;;;1.67;1.08;;;20.80;79.50;;;;;;5032641;28;20017;-74
2022/07/10 11:12:12;;;;;;;0.30;0.30;;;21.30;81.10;;;;;;5032622;28;20022;-75
2022/07/10 11:14:47;;;;;;;0.10;0.10;;;21.80;78.20;;;;;;5032740;28;20488;-76
2022/07/10 11:17:13;;;;;;;0.00;0.00;;;22.10;78.30;;;;;;5024428;28;20020;-75
2022/07/10 11:19:39;;;;;;;0.08;0.08;;;22.50;77.00;;;;;;5024201;28;20420;-75
2022/07/10 11:22:23;;;;;;;0.00;0.00;;;22.50;77.40;;;;;;5032610;28;20029;-75
2022/07/10 11:25:19;;;;;;;0.20;0.20;;;22.30;76.70;;;;;;5031446;28;20021;-75
2022/07/10 11:28:04;;;;;;;0.10;0.10;;;21.60;79.30;;;;;;5032570;28;20033;-75
2022/07/10 11:30:46;;;;;;;0.20;0.20;;;21.40;81.20;;;;;;5031967;28;20021;-75
2022/07/10 11:33:14;;;;;;;0.08;0.08;;;21.50;80.40;;;;;;5031791;28;20040;-74
2022/07/10 11:35:40;;;;;;;0.00;0.00;;;21.90;80.10;;;;;;5032163;28;20036;-76
2022/07/10 11:38:06;;;;;;;0.68;0.65;;;21.80;78.20;;;;;;5032188;28;20484;-74
2022/07/10 11:40:36;;;;;;;1.27;0.20;;;21.20;79.40;;;;;;5031990;28;20026;-74
2022/07/10 11:43:06;;;;;;;0.20;0.20;;;21.20;80.60;;;;;;5032111;28;20026;-74
2022/07/10 11:45:36;;;;;;;0.47;0.47;;;21.00;80.10;;;;;;5031605;28;20025;-74
2022/07/10 11:48:03;;;;;;;1.05;1.05;;;20.90;80.90;;;;;;5032787;28;20083;-74
2022/07/10 11:50:37;;;;;;;0.52;0.52;;;20.90;81.10;;;;;;5032313;28;20026;-75
2022/07/10 11:53:03;;;;;;;0.13;0.13;;;20.50;82.10;;;;;;5032637;28;20040;-74
2022/07/10 11:55:30;;;;;;;0.10;0.10;;;20.60;83.90;;;;;;5032200;28;20029;-75
2022/07/10 11:57:55;;;;;;;2.47;0.73;;;20.90;82.70;;;;;;5032451;28;20040;-76
2022/07/10 12:00:23;;;;;;;1.35;0.40;;;20.80;79.60;;;;;;5032363;28;20096;-75
2022/07/10 12:02:50;;;;;;;0.50;0.50;;;20.80;80.40;;;;;;5032342;28;20440;-75
2022/07/10 12:05:35;;;;;;;0.25;0.25;;;21.10;80.00;;;;;;5032413;28;20541;-76
2022/07/10 12:08:01;;;;;;;0.35;0.35;;;21.50;80.30;;;;;;5032292;28;20586;-76
2022/07/10 12:10:31;;;;;;;0.38;0.13;;;21.70;78.00;;;;;;5032143;28;20030;-75
2022/07/10 12:13:14;;;;;;;0.03;0.03;;;22.00;76.80;;;;;;5032287;28;20030;-76
2022/07/10 12:15:44;;;;;;;0.10;0.10;;;22.70;77.00;;;;;;5032373;28;20021;-76
2022/07/10 12:18:18;;;;;;;0.03;0.03;;;22.50;76.80;;;;;;5032234;28;20021;-76
2022/07/10 12:20:47;;;;;;;1.25;0.45;;;22.30;75.90;;;;;;5032116;28;20033;-75
2022/07/10 12:23:16;;;;;;;0.20;0.20;;;22.20;75.90;;;;;;5030865;28;20099;-77
2022/07/10 12:25:50;;;;;;;0.10;0.10;;;22.10;76.30;;;;;;5030879;28;20025;-76
2022/07/10 12:28:16;;;;;;;0.17;0.17;;;22.00;77.00;;;;;;5030898;28;20029;-76
2022/07/10 12:30:44;;;;;;;0.10;0.10;;;22.10;77.90;;;;;;5031884;28;20021;-77
2022/07/10 12:33:16;;;;;;;0.10;0.10;;;22.40;77.50;;;;;;5032090;28;20024;-76
2022/07/10 12:35:55;;;;;;;1.25;0.90;;;22.80;76.50;;;;;;5032082;28;20037;-75
2022/07/10 12:38:25;;;;;;;0.00;0.00;;;22.70;74.60;;;;;;5032058;28;20021;-77
2022/07/10 12:41:06;;;;;;;1.20;0.82;;;22.70;74.70;;;;;;5031838;28;20485;-75
2022/07/10 12:43:31;;;;;;;0.10;0.10;;;22.40;73.10;;;;;;5032520;28;20025;-75
2022/07/10 12:46:18;;;;;;;0.55;0.55;;;22.10;75.10;;;;;;5035801;28;20032;-75
2022/07/10 12:49:01;;;;;;;0.00;0.00;;;22.00;74.00;;;;;;5035840;28;20207;-75
2022/07/10 12:51:29;;;;;;;0.00;0.00;;;21.90;77.00;;;;;;5035817;28;20567;-75
2022/07/10 12:53:55;;;;;;;0.10;0.10;;;21.40;79.20;;;;;;5035749;28;20503;-75
2022/07/10 12:56:36;;;;;;;0.00;0.00;;;21.60;78.70;;;;;;5035577;28;20109;-76
2022/07/10 12:59:12;;;;;;;0.13;0.13;;;21.80;77.90;;;;;;5035390;28;20087;-76
2022/07/10 13:01:44;;;;;;;0.28;0.28;;;21.50;75.30;;;;;;5035645;28;20763;-75